Time;durP1;ratioP1;P1;durP2;ratioP2;P2;SDS_P1;SDS_P2;PMS_P1;PMS_P2;Temp;Humidity;BMP_temperature;BMP_pressure;BME280_temperature;BME280_humidity;BME280_pressure;Samples;Min_cycle;Max_cycle;Signal;HPM_P1;HPM_P2
2021/03/16 00:01:17;;;;;;;13.80;10.60;;;2.00;99.90;;;;;;5033314;28;20029;-74
2021/03/16 00:03:43;;;;;;;13.80;9.50;;;2.00;99.90;;;;;;5032998;28;20032;-75
2021/03/16 00:06:08;;;;;;;12.97;10.17;;;2.00;99.90;;;;;;5033393;28;20082;-75
2021/03/16 00:08:34;;;;;;;14.33;10.07;;;2.00;99.90;;;;;;5032981;28;20091;-75
2021/03/16 00:11:00;;;;;;;14.67;10.53;;;2.10;99.90;;;;;;5015413;28;20121;-75
2021/03/16 00:13:26;;;;;;;15.20;10.27;;;2.10;99.90;;;;;;5033199;28;20037;-75
2021/03/16 00:15:52;;;;;;;13.87;10.67;;;2.10;99.90;;;;;;5015507;28;20045;-75
2021/03/16 00:18:18;;;;;;;15.13;10.57;;;2.00;99.90;;;;;;5033233;28;20033;-74
2021/03/16 00:20:45;;;;;;;14.43;10.63;;;2.10;99.90;;;;;;5032893;28;20017;-74
2021/03/16 00:23:12;;;;;;;19.70;10.83;;;2.10;99.90;;;;;;5031380;28;20022;-75
2021/03/16 00:25:38;;;;;;;13.57;10.80;;;2.10;99.90;;;;;;5032290;28;20076;-74
2021/03/16 00:28:05;;;;;;;15.87;11.13;;;2.10;99.90;;;;;;5031794;28;20116;-74
2021/03/16 00:30:31;;;;;;;13.87;9.87;;;2.20;99.90;;;;;;5032812;28;20108;-74
2021/03/16 00:32:57;;;;;;;15.60;10.37;;;2.10;99.90;;;;;;5033134;28;20058;-75
2021/03/16 00:35:22;;;;;;;11.50;9.83;;;2.20;99.90;;;;;;5032870;28;20037;-74
2021/03/16 00:37:48;;;;;;;13.17;9.10;;;2.20;99.90;;;;;;5014917;28;20091;-74
2021/03/16 00:40:14;;;;;;;14.63;9.07;;;2.30;99.90;;;;;;5032823;28;20048;-74
2021/03/16 00:42:39;;;;;;;14.50;8.80;;;2.30;99.90;;;;;;5032653;28;20026;-74
2021/03/16 00:45:06;;;;;;;13.07;9.27;;;2.40;99.90;;;;;;5015037;28;20026;-74
2021/03/16 00:47:32;;;;;;;13.93;8.87;;;2.40;99.90;;;;;;5014251;28;20577;-75
2021/03/16 00:49:58;;;;;;;12.53;8.60;;;2.30;99.90;;;;;;5032882;28;20034;-74
2021/03/16 00:52:23;;;;;;;12.63;8.70;;;2.40;99.90;;;;;;5032548;28;20026;-75
2021/03/16 00:54:49;;;;;;;13.97;9.37;;;2.40;99.90;;;;;;5032411;28;20029;-76
2021/03/16 00:57:15;;;;;;;12.47;8.50;;;2.30;99.90;;;;;;5032580;28;20022;-75
2021/03/16 00:59:40;;;;;;;11.50;8.37;;;2.30;99.90;;;;;;5032370;28;20049;-75
2021/03/16 01:02:08;;;;;;;12.97;8.30;;;2.40;99.90;;;;;;5032468;28;20085;-75
2021/03/16 01:04:34;;;;;;;13.10;9.03;;;2.40;99.90;;;;;;5032656;28;20103;-75
2021/03/16 01:06:59;;;;;;;10.43;8.23;;;2.40;99.90;;;;;;5032116;28;20471;-75
2021/03/16 01:09:25;;;;;;;12.47;8.73;;;2.40;99.90;;;;;;5032193;28;20040;-73
2021/03/16 01:11:50;;;;;;;14.53;8.57;;;2.40;99.90;;;;;;5030825;28;20485;-73
2021/03/16 01:14:16;;;;;;;11.33;8.80;;;2.40;99.90;;;;;;5032237;28;20410;-73
2021/03/16 01:16:41;;;;;;;11.17;8.60;;;2.40;99.90;;;;;;5032253;28;20041;-73
2021/03/16 01:19:07;;;;;;;12.87;8.93;;;2.40;99.90;;;;;;5032237;28;20026;-72
2021/03/16 01:21:33;;;;;;;14.83;8.73;;;2.40;99.90;;;;;;5014491;28;20049;-75
2021/03/16 01:23:58;;;;;;;11.90;8.20;;;2.40;99.90;;;;;;5030759;28;20490;-75
2021/03/16 01:26:24;;;;;;;13.10;8.97;;;2.50;99.90;;;;;;5032196;28;20562;-75
2021/03/16 01:28:49;;;;;;;12.13;8.63;;;2.50;99.90;;;;;;5014646;28;20029;-75
2021/03/16 01:31:15;;;;;;;12.43;9.37;;;2.50;99.90;;;;;;5032346;28;20033;-76
2021/03/16 01:33:40;;;;;;;13.33;8.73;;;2.50;99.90;;;;;;5031953;28;20068;-78
2021/03/16 01:36:06;;;;;;;12.97;9.00;;;2.30;99.90;;;;;;5014429;28;20026;-78
2021/03/16 01:38:32;;;;;;;13.70;8.87;;;2.30;99.90;;;;;;5014267;28;20109;-78
2021/03/16 01:40:57;;;;;;;11.53;8.40;;;2.40;99.90;;;;;;5014328;28;20112;-78
2021/03/16 01:43:28;;;;;;;13.37;9.07;;;2.50;99.90;;;;;;5030561;28;20490;-78
2021/03/16 01:45:54;;;;;;;12.93;8.80;;;2.50;99.90;;;;;;5031915;28;20159;-78
2021/03/16 01:48:27;;;;;;;11.47;8.80;;;2.50;99.90;;;;;;5031821;28;20097;-77
2021/03/16 01:50:52;;;;;;;12.50;8.57;;;2.50;99.90;;;;;;5014275;28;20095;-78
2021/03/16 01:53:18;;;;;;;15.50;10.60;;;2.50;99.90;;;;;;5031703;28;20791;-77
2021/03/16 01:55:46;;;;;;;14.73;9.00;;;2.40;99.90;;;;;;5031852;28;20462;-77
2021/03/16 01:58:11;;;;;;;13.00;8.37;;;2.40;99.90;;;;;;5031347;28;20021;-78
2021/03/16 02:00:40;;;;;;;12.87;9.07;;;2.50;99.90;;;;;;5031044;28;20062;-78
2021/03/16 02:03:07;;;;;;;12.43;9.13;;;2.50;99.90;;;;;;5031572;28;20048;-78
2021/03/16 02:05:33;;;;;;;16.80;10.13;;;2.50;99.90;;;;;;5031697;28;20398;-78
2021/03/16 02:08:17;;;;;;;17.43;10.20;;;2.40;99.90;;;;;;5014261;28;20026;-78
2021/03/16 02:11:04;;;;;;;15.63;9.47;;;2.40;99.90;;;;;;5031139;28;20041;-77
2021/03/16 02:13:41;;;;;;;14.03;9.27;;;2.40;99.90;;;;;;5031821;28;20025;-77
2021/03/16 02:16:13;;;;;;;12.97;9.43;;;2.40;99.90;;;;;;5019571;28;20045;-76
2021/03/16 02:18:43;;;;;;;14.40;10.00;;;2.40;99.90;;;;;;5031620;28;20022;-76
2021/03/16 02:21:13;;;;;;;14.77;9.83;;;2.40;99.90;;;;;;5031380;28;20030;-76
2021/03/16 02:24:08;;;;;;;17.40;9.50;;;2.40;99.90;;;;;;5031406;28;20028;-76
2021/03/16 02:26:52;;;;;;;13.37;9.50;;;2.50;99.90;;;;;;5020495;28;20080;-75
2021/03/16 02:29:23;;;;;;;13.93;9.23;;;2.50;99.90;;;;;;5031366;28;20049;-76
2021/03/16 02:31:56;;;;;;;16.53;10.00;;;2.50;99.90;;;;;;5013338;28;20148;-76
2021/03/16 02:34:22;;;;;;;16.30;9.80;;;2.50;99.90;;;;;;5031007;28;20422;-76
2021/03/16 02:36:49;;;;;;;15.77;9.30;;;2.40;99.90;;;;;;5031155;28;20063;-76
2021/03/16 02:39:16;;;;;;;19.60;10.70;;;2.40;99.90;;;;;;5030722;28;20021;-76
2021/03/16 02:41:46;;;;;;;15.07;9.93;;;2.40;99.90;;;;;;5013195;28;20029;-76
2021/03/16 02:44:13;;;;;;;16.30;9.13;;;2.40;99.90;;;;;;5013193;28;20025;-76
2021/03/16 02:46:44;;;;;;;16.83;10.80;;;2.50;99.90;;;;;;5031043;28;20022;-76
2021/03/16 02:49:14;;;;;;;16.47;9.53;;;2.50;99.90;;;;;;5030862;28;20075;-75
2021/03/16 02:51:40;;;;;;;15.47;9.27;;;2.50;99.90;;;;;;5017251;28;20030;-76
2021/03/16 02:54:07;;;;;;;15.83;9.50;;;2.60;99.90;;;;;;5029412;28;20025;-76
2021/03/16 02:56:34;;;;;;;19.07;9.43;;;2.60;99.90;;;;;;5030401;28;20395;-76
2021/03/16 02:59:02;;;;;;;14.40;9.43;;;2.70;99.90;;;;;;5012631;28;20025;-76
2021/03/16 03:01:29;;;;;;;16.93;9.77;;;2.60;99.90;;;;;;5030382;28;20106;-76
2021/03/16 03:03:58;;;;;;;13.03;8.47;;;2.50;99.90;;;;;;5013108;28;20533;-76
2021/03/16 03:06:25;;;;;;;17.03;9.60;;;2.60;99.90;;;;;;5030471;28;20026;-76
2021/03/16 03:08:52;;;;;;;14.20;8.57;;;2.50;99.90;;;;;;5012725;28;20425;-76
2021/03/16 03:11:17;;;;;;;22.30;10.00;;;2.50;99.90;;;;;;5012072;28;20026;-76
2021/03/16 03:13:43;;;;;;;16.73;10.27;;;2.50;99.90;;;;;;5030490;28;20524;-76
2021/03/16 03:16:09;;;;;;;14.93;9.53;;;2.50;99.90;;;;;;5030584;28;20109;-76
2021/03/16 03:18:35;;;;;;;14.47;8.93;;;2.40;99.90;;;;;;5030044;28;20030;-76
2021/03/16 03:21:09;;;;;;;15.97;8.97;;;2.50;99.90;;;;;;5011894;28;20022;-76
2021/03/16 03:23:43;;;;;;;17.13;9.07;;;2.50;99.90;;;;;;5029745;28;20084;-76
2021/03/16 03:26:19;;;;;;;17.27;9.17;;;2.40;99.90;;;;;;5029766;28;20436;-75
2021/03/16 03:28:46;;;;;;;14.20;9.37;;;2.40;99.90;;;;;;5030465;28;20370;-75
2021/03/16 03:31:14;;;;;;;16.17;9.60;;;2.40;99.90;;;;;;5030263;28;20028;-76
2021/03/16 03:33:42;;;;;;;16.87;9.57;;;2.30;99.90;;;;;;5030158;28;20111;-76
2021/03/16 03:36:09;;;;;;;15.60;9.77;;;2.40;99.90;;;;;;5030516;28;20084;-76
2021/03/16 03:38:35;;;;;;;14.80;9.30;;;2.40;99.90;;;;;;5030373;28;20025;-75
2021/03/16 03:41:03;;;;;;;15.43;9.70;;;2.30;99.90;;;;;;5012359;28;20474;-75
2021/03/16 03:43:30;;;;;;;14.67;9.17;;;2.30;99.90;;;;;;5030007;28;20534;-75
2021/03/16 03:45:57;;;;;;;12.93;9.23;;;2.40;99.90;;;;;;5029917;28;20075;-75
2021/03/16 03:48:27;;;;;;;15.57;9.30;;;2.30;99.90;;;;;;5024640;28;20108;-75
2021/03/16 03:50:56;;;;;;;14.50;9.73;;;2.20;99.90;;;;;;5029953;28;20404;-75
2021/03/16 03:53:23;;;;;;;19.20;10.43;;;2.20;99.90;;;;;;5030016;28;20905;-76
2021/03/16 03:55:50;;;;;;;14.37;9.23;;;2.10;99.90;;;;;;5028913;28;20029;-75
2021/03/16 03:58:17;;;;;;;12.83;9.00;;;2.10;99.90;;;;;;5030139;28;20018;-75
2021/03/16 04:00:43;;;;;;;14.97;9.70;;;2.10;99.90;;;;;;5030110;28;20034;-76
2021/03/16 04:03:11;;;;;;;16.80;9.80;;;2.10;99.90;;;;;;5012119;28;20113;-76
2021/03/16 04:05:37;;;;;;;14.27;9.23;;;2.20;99.90;;;;;;5012272;28;20025;-75
2021/03/16 04:08:04;;;;;;;14.63;9.47;;;2.20;99.90;;;;;;5029777;28;20405;-75
2021/03/16 04:10:30;;;;;;;16.57;9.63;;;2.30;99.90;;;;;;5011875;28;20032;-75
2021/03/16 04:12:57;;;;;;;21.00;10.80;;;2.20;99.90;;;;;;5029862;28;20033;-75
2021/03/16 04:15:24;;;;;;;15.93;9.63;;;2.20;99.90;;;;;;5029381;28;20109;-75
2021/03/16 04:17:50;;;;;;;20.10;9.20;;;2.30;99.90;;;;;;5029873;28;20026;-75
2021/03/16 04:20:16;;;;;;;15.43;9.10;;;2.30;99.90;;;;;;5011816;28;20017;-76
2021/03/16 04:22:43;;;;;;;18.33;9.77;;;2.20;99.90;;;;;;5031482;28;20352;-75
2021/03/16 04:25:10;;;;;;;17.97;9.77;;;2.30;99.90;;;;;;5033321;28;20033;-75
2021/03/16 04:27:36;;;;;;;14.80;9.43;;;2.20;99.90;;;;;;5032942;28;20105;-76
2021/03/16 04:30:03;;;;;;;15.83;8.77;;;2.30;99.90;;;;;;5033098;28;20536;-75
2021/03/16 04:32:29;;;;;;;16.53;8.77;;;2.40;99.90;;;;;;5032880;28;20088;-76
2021/03/16 04:34:54;;;;;;;15.77;8.60;;;2.20;99.90;;;;;;5015447;28;20502;-76
2021/03/16 04:37:20;;;;;;;20.33;9.77;;;2.20;99.90;;;;;;5032976;28;20367;-76
2021/03/16 04:39:45;;;;;;;16.87;8.47;;;2.30;99.90;;;;;;5032814;28;20025;-76
2021/03/16 04:42:11;;;;;;;21.03;8.90;;;2.40;99.90;;;;;;5033056;28;20076;-76
2021/03/16 04:44:37;;;;;;;18.13;8.80;;;2.40;99.90;;;;;;5032802;28;20096;-75
2021/03/16 04:47:03;;;;;;;18.13;8.33;;;2.30;99.90;;;;;;5032873;28;20030;-76
2021/03/16 04:49:29;;;;;;;17.97;8.63;;;2.30;99.90;;;;;;5032559;28;20033;-76
2021/03/16 04:51:54;;;;;;;17.03;8.07;;;2.30;99.90;;;;;;5032789;28;20018;-76
2021/03/16 04:54:20;;;;;;;14.37;8.50;;;2.30;99.90;;;;;;5032734;28;20029;-76
2021/03/16 04:56:45;;;;;;;17.67;8.57;;;2.40;99.90;;;;;;5032575;28;20043;-76
2021/03/16 04:59:11;;;;;;;17.17;7.77;;;2.40;99.90;;;;;;5014956;28;20017;-75
2021/03/16 05:01:37;;;;;;;15.77;8.30;;;2.40;99.90;;;;;;5015016;28;20548;-76
2021/03/16 05:04:02;;;;;;;20.97;8.37;;;2.30;99.90;;;;;;5032301;28;20029;-75
2021/03/16 05:06:28;;;;;;;15.87;8.00;;;2.30;99.90;;;;;;5014307;28;20112;-75
2021/03/16 05:08:55;;;;;;;15.90;7.53;;;2.40;99.90;;;;;;5031800;28;20029;-76
2021/03/16 05:11:21;;;;;;;14.77;7.83;;;2.30;99.90;;;;;;5013583;28;20032;-76
2021/03/16 05:13:46;;;;;;;16.17;7.67;;;2.40;99.90;;;;;;5030772;28;20100;-76
2021/03/16 05:16:12;;;;;;;18.27;7.73;;;2.40;99.90;;;;;;5031488;28;20069;-76
2021/03/16 05:18:37;;;;;;;14.67;7.30;;;2.50;99.90;;;;;;5031103;28;20440;-76
2021/03/16 05:21:03;;;;;;;14.63;7.53;;;2.50;99.90;;;;;;5031415;28;20080;-73
2021/03/16 05:23:29;;;;;;;17.27;7.73;;;2.40;99.90;;;;;;5030023;28;20021;-73
2021/03/16 05:25:55;;;;;;;16.20;7.57;;;2.40;99.90;;;;;;5031197;28;20021;-73
2021/03/16 05:28:20;;;;;;;17.33;7.50;;;2.40;99.90;;;;;;5010792;28;20354;-74
2021/03/16 05:30:46;;;;;;;16.67;7.33;;;2.30;99.90;;;;;;5031476;28;20021;-73
2021/03/16 05:33:11;;;;;;;14.23;6.93;;;2.30;99.90;;;;;;5028522;28;20049;-74
2021/03/16 05:35:38;;;;;;;16.10;7.93;;;2.50;99.90;;;;;;5031301;28;20025;-74
2021/03/16 05:38:03;;;;;;;18.67;7.57;;;2.40;99.90;;;;;;5027437;28;20021;-73
2021/03/16 05:40:33;;;;;;;11.03;7.00;;;2.30;99.90;;;;;;5031549;28;20014;-73
2021/03/16 05:42:59;;;;;;;15.33;6.67;;;2.30;99.90;;;;;;5030663;28;20112;-74
2021/03/16 05:45:26;;;;;;;17.90;7.13;;;2.30;99.90;;;;;;5032153;28;20413;-74
2021/03/16 05:47:53;;;;;;;16.77;7.53;;;2.30;99.90;;;;;;5025734;28;20082;-73
2021/03/16 05:50:19;;;;;;;15.63;8.03;;;2.20;99.90;;;;;;5029273;28;20021;-74
2021/03/16 05:52:45;;;;;;;16.47;8.00;;;2.20;99.90;;;;;;5025993;28;20030;-74
2021/03/16 05:55:11;;;;;;;19.50;7.97;;;2.30;99.90;;;;;;5027662;28;20756;-73
2021/03/16 05:57:38;;;;;;;16.43;7.20;;;2.20;99.90;;;;;;5031405;28;20024;-73
2021/03/16 06:00:05;;;;;;;16.90;7.23;;;2.30;99.90;;;;;;5030131;28;20021;-73
2021/03/16 06:02:31;;;;;;;16.73;7.37;;;2.30;99.90;;;;;;5028488;28;20021;-73
2021/03/16 06:04:56;;;;;;;16.50;7.13;;;2.30;99.90;;;;;;5031217;28;20032;-73
2021/03/16 06:07:22;;;;;;;17.03;7.90;;;2.30;99.90;;;;;;5028595;28;20127;-73
2021/03/16 06:09:49;;;;;;;15.20;7.43;;;2.30;99.90;;;;;;5031534;28;20025;-73
2021/03/16 06:12:15;;;;;;;17.77;7.20;;;2.30;99.90;;;;;;5031339;28;20539;-73
2021/03/16 06:14:40;;;;;;;20.17;7.47;;;2.30;99.90;;;;;;5031076;28;20049;-73
2021/03/16 06:17:06;;;;;;;20.43;7.67;;;2.40;99.90;;;;;;5031331;28;20103;-73
2021/03/16 06:19:37;;;;;;;15.20;7.03;;;2.30;99.90;;;;;;5031370;28;20025;-73
2021/03/16 06:22:05;;;;;;;12.33;7.00;;;2.20;99.90;;;;;;5031129;28;20273;-73
2021/03/16 06:24:31;;;;;;;15.27;6.87;;;2.20;99.90;;;;;;5031515;28;20036;-73
2021/03/16 06:26:57;;;;;;;15.57;6.10;;;2.20;99.90;;;;;;5031563;28;20025;-73
2021/03/16 06:29:23;;;;;;;16.47;7.03;;;2.40;99.90;;;;;;5031002;28;20033;-73
2021/03/16 06:31:50;;;;;;;12.37;6.80;;;2.30;99.90;;;;;;5013143;28;20030;-73
2021/03/16 06:34:25;;;;;;;20.17;6.40;;;2.20;99.90;;;;;;5029905;28;20378;-70
2021/03/16 06:36:59;;;;;;;16.90;7.10;;;2.10;99.90;;;;;;5031129;28;20083;-78
2021/03/16 06:39:26;;;;;;;12.63;6.90;;;2.10;99.90;;;;;;5030081;28;20034;-77
2021/03/16 06:41:53;;;;;;;16.20;7.77;;;1.90;99.90;;;;;;5031419;28;20021;-76
2021/03/16 06:44:20;;;;;;;16.10;7.83;;;1.90;99.90;;;;;;5029536;28;20613;-76
2021/03/16 06:46:56;;;;;;;18.87;8.80;;;1.80;99.90;;;;;;5028764;28;20032;-76
2021/03/16 06:49:25;;;;;;;13.60;7.53;;;1.70;99.90;;;;;;5029679;28;20021;-75
2021/03/16 06:51:54;;;;;;;16.50;7.57;;;1.70;99.90;;;;;;5012557;28;20064;-76
2021/03/16 06:54:25;;;;;;;17.80;7.80;;;1.70;99.90;;;;;;5011579;28;20033;-77
2021/03/16 06:57:00;;;;;;;13.67;7.27;;;1.60;99.90;;;;;;5013535;28;20032;-77
2021/03/16 06:59:29;;;;;;;13.67;7.07;;;1.60;99.90;;;;;;5025329;28;20018;-77
2021/03/16 07:01:55;;;;;;;15.47;8.27;;;1.70;99.90;;;;;;5026193;28;20021;-77
2021/03/16 07:04:24;;;;;;;17.57;7.70;;;1.70;99.90;;;;;;5024856;28;20035;-77
2021/03/16 07:06:50;;;;;;;13.77;6.83;;;1.70;99.90;;;;;;5021876;28;20021;-77
2021/03/16 07:09:18;;;;;;;18.80;8.00;;;1.90;99.90;;;;;;5024183;28;20033;-73
2021/03/16 07:11:49;;;;;;;11.57;6.73;;;1.90;99.90;;;;;;5027589;28;20457;-73
2021/03/16 07:14:17;;;;;;;9.30;6.90;;;1.90;99.90;;;;;;5025065;28;20330;-72
2021/03/16 07:16:45;;;;;;;12.90;6.03;;;2.20;99.90;;;;;;5024741;28;20099;-73
2021/03/16 07:19:11;;;;;;;10.40;6.30;;;2.30;99.90;;;;;;5028774;28;20021;-73
2021/03/16 07:21:46;;;;;;;10.33;5.10;;;2.20;99.90;;;;;;5028975;28;20022;-79
2021/03/16 07:24:13;;;;;;;13.73;5.47;;;2.30;99.90;;;;;;5008618;28;20037;-78
2021/03/16 07:26:39;;;;;;;11.20;6.40;;;2.30;99.90;;;;;;5024404;28;20033;-78
2021/03/16 07:29:06;;;;;;;11.13;6.27;;;2.20;99.90;;;;;;5026159;28;20021;-81
2021/03/16 07:31:41;;;;;;;9.27;5.40;;;2.10;99.90;;;;;;5027338;28;20026;-80
2021/03/16 07:34:08;;;;;;;12.43;5.93;;;2.10;99.90;;;;;;5029365;28;20136;-81
2021/03/16 07:36:37;;;;;;;10.53;6.87;;;2.20;99.90;;;;;;5028254;28;20116;-81
2021/03/16 07:39:06;;;;;;;7.73;5.07;;;2.20;99.90;;;;;;5013900;28;20064;-81
2021/03/16 07:41:32;;;;;;;10.20;6.17;;;2.20;99.90;;;;;;5029154;28;20045;-80
2021/03/16 07:44:03;;;;;;;7.67;5.77;;;2.20;99.90;;;;;;5024294;28;20038;-81
2021/03/16 07:46:46;;;;;;;11.80;5.97;;;2.20;99.90;;;;;;5069384;22;20112;-83
2021/03/16 07:49:15;;;;;;;10.00;6.07;;;2.30;99.90;;;;;;5085779;28;20028;-76
2021/03/16 07:51:44;;;;;;;10.13;6.17;;;2.40;99.90;;;;;;5067036;28;20472;-81
2021/03/16 07:54:11;;;;;;;12.83;5.93;;;2.40;99.90;;;;;;5087305;28;20135;-76
2021/03/16 07:56:40;;;;;;;9.60;5.47;;;2.50;99.90;;;;;;5083470;28;20021;-80
2021/03/16 07:59:06;;;;;;;10.23;6.00;;;2.70;99.90;;;;;;5073388;28;20496;-78
2021/03/16 08:01:32;;;;;;;14.10;6.40;;;2.60;99.90;;;;;;5089981;28;20055;-78
2021/03/16 08:04:05;;;;;;;11.70;5.97;;;2.60;99.90;;;;;;5079640;28;20071;-78
2021/03/16 08:06:33;;;;;;;14.30;6.77;;;2.80;99.90;;;;;;5076856;28;20089;-78
2021/03/16 08:08:59;;;;;;;16.17;6.70;;;2.80;99.90;;;;;;5071541;28;20089;-79
2021/03/16 08:11:39;;;;;;;14.77;6.50;;;2.90;99.90;;;;;;5093266;28;20043;-79
2021/03/16 08:14:05;;;;;;;12.07;6.57;;;2.90;99.90;;;;;;5092939;28;20028;-80
2021/03/16 08:16:39;;;;;;;11.50;6.23;;;3.10;99.90;;;;;;5092624;28;20157;-80
2021/03/16 08:19:12;;;;;;;14.77;7.07;;;3.20;99.90;;;;;;5070070;28;20029;-80
2021/03/16 08:21:38;;;;;;;14.47;6.50;;;3.20;99.90;;;;;;5088653;28;20440;-80
2021/03/16 08:24:10;;;;;;;12.57;5.57;;;3.30;99.90;;;;;;5076598;28;20035;-80
2021/03/16 08:26:47;;;;;;;17.67;6.00;;;3.50;99.90;;;;;;5095536;28;20464;-80
2021/03/16 08:29:14;;;;;;;12.27;6.20;;;3.70;99.90;;;;;;5081159;28;20111;-76
2021/03/16 08:31:40;;;;;;;11.07;5.60;;;3.70;99.90;;;;;;5093280;28;20022;-76
2021/03/16 08:34:09;;;;;;;11.10;5.67;;;3.70;99.90;;;;;;5086920;28;20093;-77
2021/03/16 08:36:42;;;;;;;13.43;6.27;;;3.70;99.90;;;;;;5086471;28;20024;-82
2021/03/16 08:39:09;;;;;;;11.33;5.40;;;3.70;99.90;;;;;;5092292;28;20020;-81
2021/03/16 08:41:35;;;;;;;16.87;5.87;;;3.70;99.90;;;;;;5085330;28;20028;-81
2021/03/16 08:44:01;;;;;;;8.97;5.40;;;3.70;99.90;;;;;;5076885;28;20505;-80
2021/03/16 08:46:33;;;;;;;12.50;5.47;;;3.90;99.90;;;;;;5091341;28;20044;-80
2021/03/16 08:48:59;;;;;;;9.77;5.20;;;4.10;99.90;;;;;;5070464;28;20028;-82
2021/03/16 08:51:26;;;;;;;12.70;5.13;;;4.20;99.90;;;;;;5091913;28;20119;-82
2021/03/16 08:53:52;;;;;;;8.23;4.77;;;4.10;99.90;;;;;;5093081;28;20035;-81
2021/03/16 08:56:22;;;;;;;12.80;5.30;;;4.30;99.90;;;;;;5091755;28;20024;-82
2021/03/16 08:58:49;;;;;;;11.20;5.07;;;4.40;99.90;;;;;;5091314;28;20028;-81
2021/03/16 09:01:28;;;;;;;10.60;5.70;;;4.50;99.90;;;;;;5092205;28;20103;-81
2021/03/16 09:03:53;;;;;;;8.70;4.50;;;4.30;99.90;;;;;;5092663;28;20024;-81
2021/03/16 09:06:20;;;;;;;12.30;4.60;;;4.10;99.90;;;;;;5090743;28;20497;-81
2021/03/16 09:08:53;;;;;;;12.60;4.37;;;4.00;99.90;;;;;;5092588;28;20028;-80
2021/03/16 09:11:41;;;;;;;12.23;5.30;;;3.90;99.90;;;;;;5090574;28;20058;-80
2021/03/16 09:14:10;;;;;;;11.20;4.67;;;3.60;99.90;;;;;;5092099;28;20381;-80
2021/03/16 09:16:55;;;;;;;12.30;5.77;;;3.40;99.90;;;;;;5074145;28;20472;-80
2021/03/16 09:19:23;;;;;;;11.47;5.30;;;3.10;99.90;;;;;;5084141;28;20024;-79
2021/03/16 09:21:50;;;;;;;14.10;6.40;;;2.90;99.90;;;;;;5092566;28;20107;-81
2021/03/16 09:24:22;;;;;;;17.07;6.20;;;2.90;99.90;;;;;;5087262;28;20424;-80
2021/03/16 09:27:02;;;;;;;11.47;4.53;;;2.80;99.90;;;;;;5092094;28;20069;-79
2021/03/16 09:29:36;;;;;;;13.60;5.03;;;3.00;99.90;;;;;;5084735;28;20032;-81
2021/03/16 09:32:08;;;;;;;11.67;4.63;;;3.10;99.90;;;;;;5092427;28;20491;-81
2021/03/16 09:34:39;;;;;;;9.63;4.40;;;3.20;99.90;;;;;;5072231;28;20032;-81
2021/03/16 09:37:07;;;;;;;8.33;4.60;;;3.40;99.90;;;;;;5092160;28;20027;-80
2021/03/16 09:39:34;;;;;;;8.57;4.30;;;3.60;99.90;;;;;;5091710;28;20077;-74
2021/03/16 09:42:01;;;;;;;12.90;5.17;;;3.90;99.90;;;;;;5091271;28;20329;-75
2021/03/16 09:44:47;;;;;;;10.20;4.43;;;3.90;99.90;;;;;;5091346;28;20024;-75
2021/03/16 09:47:23;;;;;;;;;;;4.00;99.90;;;;;;5089311;28;20044;-75
2021/03/16 09:49:48;;;;;;;10.85;4.15;;;4.10;99.90;;;;;;5091066;28;19919;-75
2021/03/16 09:52:14;;;;;;;11.27;4.20;;;4.00;99.90;;;;;;5091691;28;20051;-75
2021/03/16 09:54:45;;;;;;;13.77;4.90;;;4.00;99.90;;;;;;5091351;28;20468;-75
2021/03/16 09:57:15;;;;;;;12.33;4.60;;;4.00;99.90;;;;;;5073899;28;20179;-81
2021/03/16 09:59:45;;;;;;;13.13;6.00;;;3.90;99.90;;;;;;5074547;28;20052;-81
2021/03/16 10:02:12;;;;;;;10.17;3.60;;;3.90;99.90;;;;;;5092157;28;20016;-80
2021/03/16 10:04:48;;;;;;;9.87;4.30;;;3.90;99.90;;;;;;5092204;28;20062;-81
2021/03/16 10:07:24;;;;;;;13.10;4.37;;;4.00;99.90;;;;;;5091551;28;20024;-81
2021/03/16 10:09:49;;;;;;;15.15;5.80;;;3.90;99.90;;;;;;5074291;28;20016;-79
2021/03/16 10:12:20;;;;;;;7.67;3.80;;;3.90;99.90;;;;;;5093463;28;20111;-79
2021/03/16 10:14:51;;;;;;;45.70;15.90;;;4.00;99.90;;;;;;5074460;28;20028;-79
2021/03/16 10:17:28;;;;;;;7.87;3.47;;;4.10;99.90;;;;;;5093089;28;20073;-80
2021/03/16 10:19:59;;;;;;;8.43;3.30;;;4.10;99.90;;;;;;5092825;28;20469;-80
2021/03/16 10:22:29;;;;;;;17.43;4.63;;;4.20;99.90;;;;;;5092920;28;20036;-80
2021/03/16 10:24:57;;;;;;;7.00;3.27;;;4.40;99.90;;;;;;5070371;28;20081;-80
2021/03/16 10:27:24;;;;;;;8.20;3.73;;;4.60;99.90;;;;;;5085409;28;20032;-80
2021/03/16 10:29:50;;;;;;;8.00;2.97;;;4.60;99.90;;;;;;5091449;28;20491;-80
2021/03/16 10:32:16;;;;;;;8.67;3.23;;;4.80;99.90;;;;;;5087558;28;20024;-81
2021/03/16 10:34:41;;;;;;;7.90;3.50;;;4.60;99.90;;;;;;5087058;28;20051;-80
2021/03/16 10:37:19;;;;;;;8.43;2.93;;;4.70;99.90;;;;;;5088383;28;20073;-80
2021/03/16 10:39:45;;;;;;;12.53;3.70;;;4.80;99.90;;;;;;5085313;28;20031;-80
2021/03/16 10:42:10;;;;;;;10.00;3.60;;;4.90;99.90;;;;;;5081778;28;20027;-80
2021/03/16 10:44:36;;;;;;;14.13;3.77;;;4.90;99.90;;;;;;5084980;28;20044;-80
2021/03/16 10:47:02;;;;;;;8.37;2.80;;;4.90;99.90;;;;;;5070020;28;20345;-80
2021/03/16 10:49:27;;;;;;;8.17;2.93;;;5.20;99.90;;;;;;5091139;28;20457;-80
2021/03/16 10:51:53;;;;;;;10.57;3.37;;;5.40;99.90;;;;;;5089058;28;20469;-80
2021/03/16 10:54:18;;;;;;;9.70;3.00;;;5.40;99.90;;;;;;5083877;28;20465;-80
2021/03/16 10:56:44;;;;;;;6.70;3.10;;;5.40;99.90;;;;;;5085208;28;20074;-80
2021/03/16 10:59:09;;;;;;;8.03;3.07;;;5.40;99.90;;;;;;5071766;28;20020;-80
2021/03/16 11:01:35;;;;;;;6.00;2.37;;;5.50;99.90;;;;;;5074356;28;20037;-81
2021/03/16 11:04:00;;;;;;;8.03;2.43;;;5.40;99.90;;;;;;5092553;28;20035;-80
2021/03/16 11:06:26;;;;;;;5.57;2.20;;;5.30;99.90;;;;;;5091357;28;20024;-81
2021/03/16 11:08:51;;;;;;;5.13;2.43;;;5.30;99.90;;;;;;5092290;28;20077;-81
2021/03/16 11:11:17;;;;;;;8.03;2.40;;;5.30;99.90;;;;;;5091243;28;20071;-81
2021/03/16 11:13:43;;;;;;;9.50;2.30;;;5.40;99.90;;;;;;5090777;28;20020;-76
2021/03/16 11:16:08;;;;;;;9.07;2.60;;;5.40;99.90;;;;;;5090532;28;20416;-76
2021/03/16 11:18:34;;;;;;;8.03;2.30;;;5.30;99.90;;;;;;5090914;28;20698;-76
2021/03/16 11:20:59;;;;;;;9.43;2.80;;;5.50;99.90;;;;;;5090791;28;20025;-77
2021/03/16 11:23:25;;;;;;;10.00;2.63;;;5.50;99.90;;;;;;5090277;28;20059;-77
2021/03/16 11:25:50;;;;;;;6.37;2.50;;;5.60;99.90;;;;;;5072471;28;20469;-76
2021/03/16 11:28:16;;;;;;;8.90;2.80;;;5.70;99.90;;;;;;5071605;28;20024;-76
2021/03/16 11:30:42;;;;;;;8.20;2.40;;;5.80;99.90;;;;;;5070702;28;20051;-76
2021/03/16 11:33:07;;;;;;;9.87;3.23;;;5.90;99.90;;;;;;5092599;28;20031;-76
2021/03/16 11:35:33;;;;;;;8.03;2.90;;;5.90;99.90;;;;;;5094302;28;20520;-76
2021/03/16 11:37:59;;;;;;;10.67;2.67;;;5.80;99.90;;;;;;5094712;28;20030;-76
2021/03/16 11:40:25;;;;;;;5.70;2.30;;;5.70;99.90;;;;;;5090181;28;20066;-76
2021/03/16 11:42:50;;;;;;;6.23;2.50;;;5.60;99.90;;;;;;5086059;28;20056;-76
2021/03/16 11:45:16;;;;;;;6.90;2.60;;;5.70;99.90;;;;;;5070010;28;20028;-76
2021/03/16 11:47:41;;;;;;;6.43;2.70;;;5.60;99.90;;;;;;5087621;28;20047;-76
2021/03/16 11:50:08;;;;;;;10.63;2.97;;;5.70;99.90;;;;;;5067481;28;20435;-76
2021/03/16 11:52:33;;;;;;;9.53;3.13;;;5.70;99.90;;;;;;5082442;28;20056;-76
2021/03/16 11:54:59;;;;;;;4.87;2.27;;;5.60;99.90;;;;;;5083774;28;20082;-76
2021/03/16 11:57:24;;;;;;;6.93;2.80;;;5.50;99.90;;;;;;5064816;28;20021;-76
2021/03/16 11:59:50;;;;;;;8.93;2.63;;;5.40;99.90;;;;;;5065948;28;20066;-76
2021/03/16 12:02:16;;;;;;;5.87;2.90;;;5.30;99.90;;;;;;5062338;28;20116;-76
2021/03/16 12:04:42;;;;;;;9.33;2.93;;;5.30;99.90;;;;;;5087979;28;20024;-81
2021/03/16 12:07:08;;;;;;;13.50;3.30;;;5.20;99.90;;;;;;5065950;28;20028;-76
2021/03/16 12:09:33;;;;;;;7.13;2.70;;;5.10;99.90;;;;;;5085555;28;20028;-76
2021/03/16 12:11:59;;;;;;;9.20;3.10;;;5.00;99.90;;;;;;5072341;28;20109;-76
2021/03/16 12:14:24;;;;;;;12.57;3.93;;;5.00;99.90;;;;;;5087346;28;20638;-76
2021/03/16 12:16:50;;;;;;;8.80;3.40;;;5.10;99.90;;;;;;5072976;28;20024;-76
2021/03/16 12:19:16;;;;;;;9.83;3.50;;;5.30;99.90;;;;;;5066175;28;20039;-76
2021/03/16 12:21:42;;;;;;;8.10;3.03;;;5.40;99.90;;;;;;5084662;28;20025;-77
2021/03/16 12:24:08;;;;;;;12.33;3.40;;;5.50;99.90;;;;;;5091715;28;20028;-81
2021/03/16 12:26:33;;;;;;;9.90;3.17;;;5.70;99.90;;;;;;5086272;28;20366;-76
2021/03/16 12:28:59;;;;;;;13.77;3.70;;;5.90;99.90;;;;;;5083502;28;20131;-75
2021/03/16 12:31:24;;;;;;;7.20;2.90;;;6.00;99.90;;;;;;5089689;28;20020;-76
2021/03/16 12:33:50;;;;;;;8.50;2.87;;;6.10;99.90;;;;;;5069949;28;20040;-76
2021/03/16 12:36:15;;;;;;;7.43;2.47;;;6.10;99.90;;;;;;5080634;28;20109;-75
2021/03/16 12:38:41;;;;;;;5.70;2.60;;;6.20;99.90;;;;;;5089573;28;20084;-76
2021/03/16 12:41:07;;;;;;;8.47;2.80;;;6.10;99.90;;;;;;5085981;28;20144;-75
2021/03/16 12:43:32;;;;;;;6.33;2.70;;;5.90;99.90;;;;;;5089832;28;20052;-76
2021/03/16 12:45:58;;;;;;;6.07;2.90;;;5.90;99.90;;;;;;5068226;28;584295;-75
2021/03/16 12:48:24;;;;;;;6.03;2.57;;;5.80;99.90;;;;;;5084344;28;20043;-76
2021/03/16 12:50:49;;;;;;;8.97;2.70;;;5.70;99.90;;;;;;5084647;28;20024;-75